sensor_id;sensor_type;location;lat;lon;timestamp;P1;durP1;ratioP1;P2;durP2;ratioP2
18340;SDS011;9296;48.084;16.352;2023-04-29T00:00:09;21.55;;;18.23;;
18340;SDS011;9296;48.084;16.352;2023-04-29T00:08:43;24.38;;;19.20;;
18340;SDS011;9296;48.084;16.352;2023-04-29T00:11:10;26.88;;;19.52;;
18340;SDS011;9296;48.084;16.352;2023-04-29T00:13:39;24.65;;;19.52;;
18340;SDS011;9296;48.084;16.352;2023-04-29T00:16:06;24.30;;;19.40;;
18340;SDS011;9296;48.084;16.352;2023-04-29T00:21:35;25.65;;;19.48;;
18340;SDS011;9296;48.084;16.352;2023-04-29T00:24:02;29.17;;;20.15;;
18340;SDS011;9296;48.084;16.352;2023-04-29T00:26:30;26.00;;;20.58;;
18340;SDS011;9296;48.084;16.352;2023-04-29T00:29:00;26.38;;;19.58;;
18340;SDS011;9296;48.084;16.352;2023-04-29T00:31:27;26.73;;;20.75;;
18340;SDS011;9296;48.084;16.352;2023-04-29T00:37:00;28.42;;;20.85;;
18340;SDS011;9296;48.084;16.352;2023-04-29T00:39:28;29.88;;;22.15;;
18340;SDS011;9296;48.084;16.352;2023-04-29T00:41:55;27.27;;;21.73;;
18340;SDS011;9296;48.084;16.352;2023-04-29T00:44:23;29.13;;;21.38;;
18340;SDS011;9296;48.084;16.352;2023-04-29T00:46:51;27.52;;;21.67;;
18340;SDS011;9296;48.084;16.352;2023-04-29T00:49:18;29.35;;;21.95;;
18340;SDS011;9296;48.084;16.352;2023-04-29T00:51:45;29.00;;;21.48;;
18340;SDS011;9296;48.084;16.352;2023-04-29T00:54:13;32.35;;;22.50;;
18340;SDS011;9296;48.084;16.352;2023-04-29T00:56:40;32.55;;;23.10;;
18340;SDS011;9296;48.084;16.352;2023-04-29T00:59:08;30.67;;;23.45;;
18340;SDS011;9296;48.084;16.352;2023-04-29T01:01:38;31.27;;;23.77;;
18340;SDS011;9296;48.084;16.352;2023-04-29T01:06:53;31.98;;;24.77;;
18340;SDS011;9296;48.084;16.352;2023-04-29T01:09:36;35.83;;;25.15;;
18340;SDS011;9296;48.084;16.352;2023-04-29T01:12:06;33.58;;;24.63;;
18340;SDS011;9296;48.084;16.352;2023-04-29T01:14:34;34.88;;;25.98;;
18340;SDS011;9296;48.084;16.352;2023-04-29T01:17:06;35.45;;;25.77;;
18340;SDS011;9296;48.084;16.352;2023-04-29T01:22:31;37.83;;;26.75;;
18340;SDS011;9296;48.084;16.352;2023-04-29T01:25:00;38.40;;;26.70;;
18340;SDS011;9296;48.084;16.352;2023-04-29T01:27:29;40.63;;;27.02;;
18340;SDS011;9296;48.084;16.352;2023-04-29T01:30:00;38.53;;;28.40;;
18340;SDS011;9296;48.084;16.352;2023-04-29T01:32:30;39.58;;;29.40;;
18340;SDS011;9296;48.084;16.352;2023-04-29T01:35:03;39.00;;;28.33;;
18340;SDS011;9296;48.084;16.352;2023-04-29T01:37:34;38.72;;;28.77;;
18340;SDS011;9296;48.084;16.352;2023-04-29T01:40:08;39.25;;;28.35;;
18340;SDS011;9296;48.084;16.352;2023-04-29T01:42:38;42.80;;;29.85;;
18340;SDS011;9296;48.084;16.352;2023-04-29T01:45:06;42.25;;;30.27;;
18340;SDS011;9296;48.084;16.352;2023-04-29T01:50:56;45.05;;;31.17;;
18340;SDS011;9296;48.084;16.352;2023-04-29T01:53:23;44.63;;;29.27;;
18340;SDS011;9296;48.084;16.352;2023-04-29T01:55:52;44.97;;;30.33;;
18340;SDS011;9296;48.084;16.352;2023-04-29T01:58:19;44.58;;;30.48;;
18340;SDS011;9296;48.084;16.352;2023-04-29T02:00:46;44.42;;;30.80;;
18340;SDS011;9296;48.084;16.352;2023-04-29T02:06:17;46.30;;;31.48;;
18340;SDS011;9296;48.084;16.352;2023-04-29T02:08:44;46.05;;;31.17;;
18340;SDS011;9296;48.084;16.352;2023-04-29T02:11:14;48.17;;;31.00;;
18340;SDS011;9296;48.084;16.352;2023-04-29T02:13:41;45.15;;;31.88;;
18340;SDS011;9296;48.084;16.352;2023-04-29T02:16:08;51.42;;;32.63;;
18340;SDS011;9296;48.084;16.352;2023-04-29T02:18:36;51.25;;;32.78;;
18340;SDS011;9296;48.084;16.352;2023-04-29T02:21:04;47.65;;;32.85;;
18340;SDS011;9296;48.084;16.352;2023-04-29T02:23:31;46.90;;;32.20;;
18340;SDS011;9296;48.084;16.352;2023-04-29T02:25:58;48.22;;;32.45;;
18340;SDS011;9296;48.084;16.352;2023-04-29T02:28:29;48.10;;;32.22;;
18340;SDS011;9296;48.084;16.352;2023-04-29T02:30:56;47.85;;;31.67;;
18340;SDS011;9296;48.084;16.352;2023-04-29T02:39:28;44.30;;;31.02;;
18340;SDS011;9296;48.084;16.352;2023-04-29T02:41:56;52.55;;;34.15;;
18340;SDS011;9296;48.084;16.352;2023-04-29T02:44:24;52.60;;;33.53;;
18340;SDS011;9296;48.084;16.352;2023-04-29T02:46:51;48.88;;;32.22;;
18340;SDS011;9296;48.084;16.352;2023-04-29T02:52:23;50.83;;;34.72;;
18340;SDS011;9296;48.084;16.352;2023-04-29T02:54:50;53.92;;;34.97;;
18340;SDS011;9296;48.084;16.352;2023-04-29T02:57:17;54.22;;;34.13;;
18340;SDS011;9296;48.084;16.352;2023-04-29T02:59:46;54.08;;;35.38;;
18340;SDS011;9296;48.084;16.352;2023-04-29T03:02:13;55.03;;;34.28;;
18340;SDS011;9296;48.084;16.352;2023-04-29T03:07:44;56.08;;;34.92;;
18340;SDS011;9296;48.084;16.352;2023-04-29T03:10:11;55.40;;;34.65;;
18340;SDS011;9296;48.084;16.352;2023-04-29T03:12:39;56.03;;;35.75;;
18340;SDS011;9296;48.084;16.352;2023-04-29T03:15:08;58.67;;;35.65;;
18340;SDS011;9296;48.084;16.352;2023-04-29T03:17:35;55.17;;;34.97;;
18340;SDS011;9296;48.084;16.352;2023-04-29T03:20:11;56.10;;;34.78;;
18340;SDS011;9296;48.084;16.352;2023-04-29T03:22:38;50.03;;;34.55;;
18340;SDS011;9296;48.084;16.352;2023-04-29T03:25:06;53.83;;;34.95;;
18340;SDS011;9296;48.084;16.352;2023-04-29T03:27:34;57.47;;;36.97;;
18340;SDS011;9296;48.084;16.352;2023-04-29T03:30:01;55.63;;;36.17;;
18340;SDS011;9296;48.084;16.352;2023-04-29T03:32:30;54.15;;;34.58;;
18340;SDS011;9296;48.084;16.352;2023-04-29T03:38:00;56.35;;;35.45;;
18340;SDS011;9296;48.084;16.352;2023-04-29T03:40:28;54.40;;;33.28;;
18340;SDS011;9296;48.084;16.352;2023-04-29T03:42:55;55.08;;;35.13;;
18340;SDS011;9296;48.084;16.352;2023-04-29T03:45:22;58.00;;;34.97;;
18340;SDS011;9296;48.084;16.352;2023-04-29T03:53:57;53.83;;;34.60;;
18340;SDS011;9296;48.084;16.352;2023-04-29T03:56:25;56.38;;;33.72;;
18340;SDS011;9296;48.084;16.352;2023-04-29T03:58:52;57.22;;;34.63;;
18340;SDS011;9296;48.084;16.352;2023-04-29T04:01:19;57.78;;;34.83;;
18340;SDS011;9296;48.084;16.352;2023-04-29T04:04:05;53.22;;;34.15;;
18340;SDS011;9296;48.084;16.352;2023-04-29T04:06:33;58.30;;;34.65;;
18340;SDS011;9296;48.084;16.352;2023-04-29T04:09:01;59.67;;;34.35;;
18340;SDS011;9296;48.084;16.352;2023-04-29T04:11:28;55.30;;;34.30;;
18340;SDS011;9296;48.084;16.352;2023-04-29T04:13:56;57.75;;;35.45;;
18340;SDS011;9296;48.084;16.352;2023-04-29T04:16:23;57.13;;;34.03;;
18340;SDS011;9296;48.084;16.352;2023-04-29T04:18:50;56.70;;;34.97;;
18340;SDS011;9296;48.084;16.352;2023-04-29T04:21:17;65.85;;;39.08;;
18340;SDS011;9296;48.084;16.352;2023-04-29T04:23:45;56.63;;;36.05;;
18340;SDS011;9296;48.084;16.352;2023-04-29T04:26:14;59.10;;;34.70;;
18340;SDS011;9296;48.084;16.352;2023-04-29T04:28:41;62.20;;;35.88;;
18340;SDS011;9296;48.084;16.352;2023-04-29T04:31:08;58.42;;;34.95;;
18340;SDS011;9296;48.084;16.352;2023-04-29T04:39:42;64.45;;;34.78;;
18340;SDS011;9296;48.084;16.352;2023-04-29T04:42:11;58.60;;;35.53;;
18340;SDS011;9296;48.084;16.352;2023-04-29T04:44:38;61.38;;;34.85;;
18340;SDS011;9296;48.084;16.352;2023-04-29T04:47:05;59.47;;;34.45;;
18340;SDS011;9296;48.084;16.352;2023-04-29T04:52:39;54.13;;;31.88;;
18340;SDS011;9296;48.084;16.352;2023-04-29T04:55:07;56.25;;;33.40;;
18340;SDS011;9296;48.084;16.352;2023-04-29T04:57:36;59.08;;;34.25;;
18340;SDS011;9296;48.084;16.352;2023-04-29T05:00:03;57.05;;;32.58;;
18340;SDS011;9296;48.084;16.352;2023-04-29T05:02:31;51.75;;;31.13;;
18340;SDS011;9296;48.084;16.352;2023-04-29T05:08:01;51.08;;;29.10;;
18340;SDS011;9296;48.084;16.352;2023-04-29T05:10:28;51.58;;;29.30;;
18340;SDS011;9296;48.084;16.352;2023-04-29T05:12:58;45.65;;;28.48;;
18340;SDS011;9296;48.084;16.352;2023-04-29T05:15:26;40.08;;;26.17;;
18340;SDS011;9296;48.084;16.352;2023-04-29T05:17:53;37.70;;;25.52;;
18340;SDS011;9296;48.084;16.352;2023-04-29T05:23:33;35.67;;;23.38;;
18340;SDS011;9296;48.084;16.352;2023-04-29T05:26:01;32.20;;;23.08;;
18340;SDS011;9296;48.084;16.352;2023-04-29T05:28:29;33.15;;;23.92;;
18340;SDS011;9296;48.084;16.352;2023-04-29T05:30:56;31.05;;;22.58;;
18340;SDS011;9296;48.084;16.352;2023-04-29T05:39:31;27.75;;;20.92;;
18340;SDS011;9296;48.084;16.352;2023-04-29T05:41:58;26.70;;;20.35;;
18340;SDS011;9296;48.084;16.352;2023-04-29T05:44:28;27.00;;;20.77;;
18340;SDS011;9296;48.084;16.352;2023-04-29T05:46:55;26.45;;;20.20;;
18340;SDS011;9296;48.084;16.352;2023-04-29T05:49:23;26.58;;;19.80;;
18340;SDS011;9296;48.084;16.352;2023-04-29T05:51:50;23.98;;;18.45;;
18340;SDS011;9296;48.084;16.352;2023-04-29T05:54:17;25.55;;;19.30;;
18340;SDS011;9296;48.084;16.352;2023-04-29T05:56:44;27.10;;;20.33;;
18340;SDS011;9296;48.084;16.352;2023-04-29T05:59:12;28.52;;;20.08;;
18340;SDS011;9296;48.084;16.352;2023-04-29T06:01:40;26.42;;;20.63;;
18340;SDS011;9296;48.084;16.352;2023-04-29T06:10:14;28.00;;;20.88;;
18340;SDS011;9296;48.084;16.352;2023-04-29T06:12:41;28.92;;;21.48;;
18340;SDS011;9296;48.084;16.352;2023-04-29T06:15:09;26.67;;;20.27;;
18340;SDS011;9296;48.084;16.352;2023-04-29T06:17:37;25.58;;;19.52;;
18340;SDS011;9296;48.084;16.352;2023-04-29T06:23:08;21.13;;;16.75;;
18340;SDS011;9296;48.084;16.352;2023-04-29T06:25:35;19.08;;;15.18;;
18340;SDS011;9296;48.084;16.352;2023-04-29T06:28:02;20.33;;;15.90;;
18340;SDS011;9296;48.084;16.352;2023-04-29T06:30:29;18.23;;;15.27;;
18340;SDS011;9296;48.084;16.352;2023-04-29T06:32:58;18.35;;;16.10;;
18340;SDS011;9296;48.084;16.352;2023-04-29T06:38:28;16.10;;;14.18;;
18340;SDS011;9296;48.084;16.352;2023-04-29T06:40:56;17.35;;;14.35;;
18340;SDS011;9296;48.084;16.352;2023-04-29T06:43:24;17.42;;;14.48;;
18340;SDS011;9296;48.084;16.352;2023-04-29T06:45:52;18.17;;;14.52;;
18340;SDS011;9296;48.084;16.352;2023-04-29T06:48:20;16.30;;;14.00;;
18340;SDS011;9296;48.084;16.352;2023-04-29T06:53:51;16.50;;;14.00;;
18340;SDS011;9296;48.084;16.352;2023-04-29T06:56:18;17.65;;;14.38;;
18340;SDS011;9296;48.084;16.352;2023-04-29T06:58:45;14.90;;;12.23;;
18340;SDS011;9296;48.084;16.352;2023-04-29T07:01:13;14.57;;;11.93;;
18340;SDS011;9296;48.084;16.352;2023-04-29T07:03:42;12.70;;;11.38;;
18340;SDS011;9296;48.084;16.352;2023-04-29T07:09:12;13.43;;;11.00;;
18340;SDS011;9296;48.084;16.352;2023-04-29T07:11:39;11.80;;;10.43;;
18340;SDS011;9296;48.084;16.352;2023-04-29T07:14:07;11.85;;;10.65;;
18340;SDS011;9296;48.084;16.352;2023-04-29T07:16:34;11.18;;;9.93;;
18340;SDS011;9296;48.084;16.352;2023-04-29T07:22:06;10.73;;;9.60;;
18340;SDS011;9296;48.084;16.352;2023-04-29T07:24:33;10.07;;;9.07;;
18340;SDS011;9296;48.084;16.352;2023-04-29T07:27:01;10.30;;;9.30;;
18340;SDS011;9296;48.084;16.352;2023-04-29T07:29:28;9.68;;;8.68;;
18340;SDS011;9296;48.084;16.352;2023-04-29T07:31:55;9.10;;;8.20;;
18340;SDS011;9296;48.084;16.352;2023-04-29T07:40:31;7.63;;;6.93;;
18340;SDS011;9296;48.084;16.352;2023-04-29T07:42:58;7.20;;;6.57;;
18340;SDS011;9296;48.084;16.352;2023-04-29T07:45:29;7.32;;;6.38;;
18340;SDS011;9296;48.084;16.352;2023-04-29T07:47:57;6.80;;;5.93;;
18340;SDS011;9296;48.084;16.352;2023-04-29T07:50:42;6.93;;;6.32;;
18340;SDS011;9296;48.084;16.352;2023-04-29T07:53:09;6.43;;;5.80;;
18340;SDS011;9296;48.084;16.352;2023-04-29T07:55:38;6.53;;;5.90;;
18340;SDS011;9296;48.084;16.352;2023-04-29T07:58:05;6.07;;;5.57;;
18340;SDS011;9296;48.084;16.352;2023-04-29T08:00:32;5.80;;;5.20;;
18340;SDS011;9296;48.084;16.352;2023-04-29T08:02:59;5.28;;;4.80;;
18340;SDS011;9296;48.084;16.352;2023-04-29T08:05:26;4.70;;;4.30;;
18340;SDS011;9296;48.084;16.352;2023-04-29T08:07:54;5.03;;;4.40;;
18340;SDS011;9296;48.084;16.352;2023-04-29T08:10:21;4.28;;;3.88;;
18340;SDS011;9296;48.084;16.352;2023-04-29T08:12:50;4.07;;;3.78;;
18340;SDS011;9296;48.084;16.352;2023-04-29T08:15:17;4.20;;;3.90;;
18340;SDS011;9296;48.084;16.352;2023-04-29T08:17:44;4.10;;;3.15;;
18340;SDS011;9296;48.084;16.352;2023-04-29T08:23:20;3.72;;;3.10;;
18340;SDS011;9296;48.084;16.352;2023-04-29T08:25:47;3.83;;;3.50;;
18340;SDS011;9296;48.084;16.352;2023-04-29T08:28:17;4.00;;;3.60;;
18340;SDS011;9296;48.084;16.352;2023-04-29T08:30:44;4.65;;;4.15;;
18340;SDS011;9296;48.084;16.352;2023-04-29T08:33:11;4.70;;;4.10;;
18340;SDS011;9296;48.084;16.352;2023-04-29T08:39:00;5.40;;;4.03;;
18340;SDS011;9296;48.084;16.352;2023-04-29T08:41:27;4.43;;;3.80;;
18340;SDS011;9296;48.084;16.352;2023-04-29T08:43:59;4.55;;;4.10;;
18340;SDS011;9296;48.084;16.352;2023-04-29T08:46:26;5.00;;;4.15;;
18340;SDS011;9296;48.084;16.352;2023-04-29T08:48:53;4.50;;;4.10;;
18340;SDS011;9296;48.084;16.352;2023-04-29T08:54:25;4.20;;;3.42;;
18340;SDS011;9296;48.084;16.352;2023-04-29T08:56:52;7.15;;;5.40;;
18340;SDS011;9296;48.084;16.352;2023-04-29T08:59:23;8.88;;;6.00;;
18340;SDS011;9296;48.084;16.352;2023-04-29T09:01:51;6.82;;;6.10;;
18340;SDS011;9296;48.084;16.352;2023-04-29T09:04:21;6.03;;;5.43;;
18340;SDS011;9296;48.084;16.352;2023-04-29T09:06:54;6.03;;;5.13;;
18340;SDS011;9296;48.084;16.352;2023-04-29T09:09:22;7.18;;;5.70;;
18340;SDS011;9296;48.084;16.352;2023-04-29T09:11:50;6.45;;;5.43;;
18340;SDS011;9296;48.084;16.352;2023-04-29T09:14:17;8.48;;;5.82;;
18340;SDS011;9296;48.084;16.352;2023-04-29T09:16:47;7.78;;;6.55;;
18340;SDS011;9296;48.084;16.352;2023-04-29T09:19:29;13.27;;;7.50;;
18340;SDS011;9296;48.084;16.352;2023-04-29T09:25:10;10.23;;;6.70;;
18340;SDS011;9296;48.084;16.352;2023-04-29T09:27:37;9.98;;;6.55;;
18340;SDS011;9296;48.084;16.352;2023-04-29T09:30:05;8.35;;;6.95;;
18340;SDS011;9296;48.084;16.352;2023-04-29T09:32:34;10.82;;;7.35;;
18340;SDS011;9296;48.084;16.352;2023-04-29T09:40:52;7.38;;;5.07;;
18340;SDS011;9296;48.084;16.352;2023-04-29T09:43:20;5.90;;;4.88;;
18340;SDS011;9296;48.084;16.352;2023-04-29T09:45:48;5.70;;;4.70;;
18340;SDS011;9296;48.084;16.352;2023-04-29T09:48:17;6.30;;;4.90;;
18340;SDS011;9296;48.084;16.352;2023-04-29T09:50:44;6.75;;;4.68;;
18340;SDS011;9296;48.084;16.352;2023-04-29T09:53:26;5.35;;;3.97;;
18340;SDS011;9296;48.084;16.352;2023-04-29T09:55:58;5.80;;;4.07;;
18340;SDS011;9296;48.084;16.352;2023-04-29T09:58:27;7.85;;;5.47;;
18340;SDS011;9296;48.084;16.352;2023-04-29T10:00:55;4.72;;;4.13;;
18340;SDS011;9296;48.084;16.352;2023-04-29T10:03:27;13.23;;;4.97;;
18340;SDS011;9296;48.084;16.352;2023-04-29T10:05:58;7.20;;;4.75;;
18340;SDS011;9296;48.084;16.352;2023-04-29T10:08:27;4.53;;;3.90;;
18340;SDS011;9296;48.084;16.352;2023-04-29T10:10:58;5.88;;;4.75;;
18340;SDS011;9296;48.084;16.352;2023-04-29T10:13:26;5.43;;;4.72;;
18340;SDS011;9296;48.084;16.352;2023-04-29T10:15:56;6.82;;;4.32;;
18340;SDS011;9296;48.084;16.352;2023-04-29T10:18:25;5.25;;;4.50;;
18340;SDS011;9296;48.084;16.352;2023-04-29T10:20:58;4.65;;;3.80;;
18340;SDS011;9296;48.084;16.352;2023-04-29T10:23:27;4.50;;;3.80;;
18340;SDS011;9296;48.084;16.352;2023-04-29T10:25:55;4.50;;;3.90;;
18340;SDS011;9296;48.084;16.352;2023-04-29T10:28:23;4.03;;;3.72;;
18340;SDS011;9296;48.084;16.352;2023-04-29T10:30:52;4.65;;;3.20;;
18340;SDS011;9296;48.084;16.352;2023-04-29T10:33:20;3.78;;;3.20;;
18340;SDS011;9296;48.084;16.352;2023-04-29T10:35:48;3.20;;;2.90;;
18340;SDS011;9296;48.084;16.352;2023-04-29T10:38:25;3.70;;;3.40;;
18340;SDS011;9296;48.084;16.352;2023-04-29T10:40:54;3.88;;;3.50;;
18340;SDS011;9296;48.084;16.352;2023-04-29T10:43:22;5.03;;;3.92;;
18340;SDS011;9296;48.084;16.352;2023-04-29T10:45:50;4.78;;;4.28;;
18340;SDS011;9296;48.084;16.352;2023-04-29T10:48:38;5.03;;;4.20;;
18340;SDS011;9296;48.084;16.352;2023-04-29T10:51:05;4.25;;;3.67;;
18340;SDS011;9296;48.084;16.352;2023-04-29T10:53:34;3.95;;;3.63;;
18340;SDS011;9296;48.084;16.352;2023-04-29T10:56:03;3.95;;;3.30;;
18340;SDS011;9296;48.084;16.352;2023-04-29T10:58:41;5.05;;;3.78;;
18340;SDS011;9296;48.084;16.352;2023-04-29T11:01:09;4.28;;;2.90;;
18340;SDS011;9296;48.084;16.352;2023-04-29T11:03:46;4.07;;;2.97;;
18340;SDS011;9296;48.084;16.352;2023-04-29T11:09:20;5.45;;;3.17;;
18340;SDS011;9296;48.084;16.352;2023-04-29T11:11:52;3.28;;;2.83;;
18340;SDS011;9296;48.084;16.352;2023-04-29T11:14:23;3.20;;;2.83;;
18340;SDS011;9296;48.084;16.352;2023-04-29T11:16:51;3.65;;;3.08;;
18340;SDS011;9296;48.084;16.352;2023-04-29T11:19:19;3.60;;;3.30;;
18340;SDS011;9296;48.084;16.352;2023-04-29T11:21:48;5.20;;;3.40;;
18340;SDS011;9296;48.084;16.352;2023-04-29T11:24:30;6.70;;;4.50;;
18340;SDS011;9296;48.084;16.352;2023-04-29T11:27:00;4.85;;;3.78;;
18340;SDS011;9296;48.084;16.352;2023-04-29T11:29:29;4.57;;;3.85;;
18340;SDS011;9296;48.084;16.352;2023-04-29T11:31:57;4.63;;;3.70;;
18340;SDS011;9296;48.084;16.352;2023-04-29T11:34:24;4.78;;;4.10;;
18340;SDS011;9296;48.084;16.352;2023-04-29T11:36:51;5.22;;;4.10;;
18340;SDS011;9296;48.084;16.352;2023-04-29T11:39:19;5.05;;;3.85;;
18340;SDS011;9296;48.084;16.352;2023-04-29T11:41:49;4.53;;;3.40;;
18340;SDS011;9296;48.084;16.352;2023-04-29T11:44:20;4.32;;;3.45;;
18340;SDS011;9296;48.084;16.352;2023-04-29T11:46:47;3.20;;;2.90;;
18340;SDS011;9296;48.084;16.352;2023-04-29T11:49:15;4.45;;;3.33;;
18340;SDS011;9296;48.084;16.352;2023-04-29T11:54:46;2.85;;;2.58;;
18340;SDS011;9296;48.084;16.352;2023-04-29T11:57:15;4.45;;;3.92;;
18340;SDS011;9296;48.084;16.352;2023-04-29T11:59:42;3.83;;;3.30;;
18340;SDS011;9296;48.084;16.352;2023-04-29T12:02:10;3.40;;;3.10;;
18340;SDS011;9296;48.084;16.352;2023-04-29T12:04:43;3.42;;;3.13;;
18340;SDS011;9296;48.084;16.352;2023-04-29T12:10:15;3.28;;;2.90;;
18340;SDS011;9296;48.084;16.352;2023-04-29T12:12:44;4.35;;;3.35;;
18340;SDS011;9296;48.084;16.352;2023-04-29T12:15:11;3.40;;;3.10;;
18340;SDS011;9296;48.084;16.352;2023-04-29T12:17:39;4.07;;;3.13;;
18340;SDS011;9296;48.084;16.352;2023-04-29T12:20:07;3.47;;;3.17;;
18340;SDS011;9296;48.084;16.352;2023-04-29T12:25:38;3.25;;;2.95;;
18340;SDS011;9296;48.084;16.352;2023-04-29T12:28:11;4.70;;;2.90;;
18340;SDS011;9296;48.084;16.352;2023-04-29T12:30:39;3.13;;;2.83;;
18340;SDS011;9296;48.084;16.352;2023-04-29T12:33:06;4.40;;;2.80;;
18340;SDS011;9296;48.084;16.352;2023-04-29T12:38:32;3.15;;;2.72;;
18340;SDS011;9296;48.084;16.352;2023-04-29T12:41:00;4.10;;;3.30;;
18340;SDS011;9296;48.084;16.352;2023-04-29T12:43:30;4.05;;;3.20;;
18340;SDS011;9296;48.084;16.352;2023-04-29T12:45:59;3.40;;;3.10;;
18340;SDS011;9296;48.084;16.352;2023-04-29T12:48:28;3.78;;;3.08;;
18340;SDS011;9296;48.084;16.352;2023-04-29T12:53:59;4.80;;;3.28;;
18340;SDS011;9296;48.084;16.352;2023-04-29T12:56:27;3.90;;;3.10;;
18340;SDS011;9296;48.084;16.352;2023-04-29T12:59:02;5.85;;;3.30;;
18340;SDS011;9296;48.084;16.352;2023-04-29T13:01:30;3.40;;;3.10;;
18340;SDS011;9296;48.084;16.352;2023-04-29T13:03:57;4.00;;;3.40;;
18340;SDS011;9296;48.084;16.352;2023-04-29T13:06:24;4.20;;;3.47;;
18340;SDS011;9296;48.084;16.352;2023-04-29T13:08:52;3.97;;;3.58;;
18340;SDS011;9296;48.084;16.352;2023-04-29T13:11:19;4.10;;;3.47;;
18340;SDS011;9296;48.084;16.352;2023-04-29T13:13:46;5.57;;;5.07;;
18340;SDS011;9296;48.084;16.352;2023-04-29T13:16:15;7.38;;;6.15;;
18340;SDS011;9296;48.084;16.352;2023-04-29T13:18:58;7.25;;;6.32;;
18340;SDS011;9296;48.084;16.352;2023-04-29T13:24:29;9.20;;;7.70;;
18340;SDS011;9296;48.084;16.352;2023-04-29T13:26:59;9.25;;;8.25;;
18340;SDS011;9296;48.084;16.352;2023-04-29T13:29:28;9.07;;;7.90;;
18340;SDS011;9296;48.084;16.352;2023-04-29T13:31:55;8.93;;;7.25;;
18340;SDS011;9296;48.084;16.352;2023-04-29T13:34:24;8.68;;;7.30;;
18340;SDS011;9296;48.084;16.352;2023-04-29T13:39:54;10.18;;;8.43;;
18340;SDS011;9296;48.084;16.352;2023-04-29T13:42:22;10.90;;;9.65;;
18340;SDS011;9296;48.084;16.352;2023-04-29T13:44:51;10.85;;;9.57;;
18340;SDS011;9296;48.084;16.352;2023-04-29T13:47:21;11.85;;;9.55;;
18340;SDS011;9296;48.084;16.352;2023-04-29T13:49:50;10.98;;;9.77;;
18340;SDS011;9296;48.084;16.352;2023-04-29T13:55:20;12.65;;;10.90;;
18340;SDS011;9296;48.084;16.352;2023-04-29T13:57:47;13.00;;;9.13;;
18340;SDS011;9296;48.084;16.352;2023-04-29T14:00:28;11.57;;;9.38;;
18340;SDS011;9296;48.084;16.352;2023-04-29T14:02:55;10.85;;;9.18;;
18340;SDS011;9296;48.084;16.352;2023-04-29T14:05:24;9.45;;;8.25;;
18340;SDS011;9296;48.084;16.352;2023-04-29T14:10:55;11.18;;;8.75;;
18340;SDS011;9296;48.084;16.352;2023-04-29T14:13:22;5.95;;;4.68;;
18340;SDS011;9296;48.084;16.352;2023-04-29T14:15:49;5.72;;;4.10;;
18340;SDS011;9296;48.084;16.352;2023-04-29T14:26:30;7.93;;;6.20;;
18340;SDS011;9296;48.084;16.352;2023-04-29T14:28:57;7.07;;;4.75;;
18340;SDS011;9296;48.084;16.352;2023-04-29T14:31:25;5.65;;;4.50;;
18340;SDS011;9296;48.084;16.352;2023-04-29T14:33:55;4.72;;;3.75;;
18340;SDS011;9296;48.084;16.352;2023-04-29T14:36:24;4.80;;;3.35;;
18340;SDS011;9296;48.084;16.352;2023-04-29T14:38:52;4.32;;;3.33;;
18340;SDS011;9296;48.084;16.352;2023-04-29T14:41:20;4.20;;;3.35;;
18340;SDS011;9296;48.084;16.352;2023-04-29T14:43:50;3.17;;;2.75;;
18340;SDS011;9296;48.084;16.352;2023-04-29T14:46:17;3.30;;;3.00;;
18340;SDS011;9296;48.084;16.352;2023-04-29T14:48:46;3.78;;;2.88;;
18340;SDS011;9296;48.084;16.352;2023-04-29T14:51:16;3.35;;;2.83;;
18340;SDS011;9296;48.084;16.352;2023-04-29T14:53:43;3.47;;;3.17;;
18340;SDS011;9296;48.084;16.352;2023-04-29T14:56:10;4.18;;;3.20;;
18340;SDS011;9296;48.084;16.352;2023-04-29T14:58:40;4.22;;;3.70;;
18340;SDS011;9296;48.084;16.352;2023-04-29T15:01:11;4.97;;;4.32;;
18340;SDS011;9296;48.084;16.352;2023-04-29T15:09:33;5.47;;;4.20;;
18340;SDS011;9296;48.084;16.352;2023-04-29T15:12:00;4.10;;;3.70;;
18340;SDS011;9296;48.084;16.352;2023-04-29T15:14:28;3.92;;;3.55;;
18340;SDS011;9296;48.084;16.352;2023-04-29T15:17:02;4.25;;;3.50;;
18340;SDS011;9296;48.084;16.352;2023-04-29T15:19:29;4.25;;;3.10;;
18340;SDS011;9296;48.084;16.352;2023-04-29T15:21:57;3.70;;;3.08;;
18340;SDS011;9296;48.084;16.352;2023-04-29T15:24:24;3.40;;;3.10;;
18340;SDS011;9296;48.084;16.352;2023-04-29T15:26:51;3.42;;;3.13;;
18340;SDS011;9296;48.084;16.352;2023-04-29T15:29:19;3.28;;;2.47;;
18340;SDS011;9296;48.084;16.352;2023-04-29T15:31:47;4.22;;;2.80;;
18340;SDS011;9296;48.084;16.352;2023-04-29T15:34:21;3.25;;;2.13;;
18340;SDS011;9296;48.084;16.352;2023-04-29T15:36:48;2.35;;;2.15;;
18340;SDS011;9296;48.084;16.352;2023-04-29T15:39:18;2.40;;;2.20;;
18340;SDS011;9296;48.084;16.352;2023-04-29T15:41:46;2.60;;;2.10;;
18340;SDS011;9296;48.084;16.352;2023-04-29T15:44:18;2.75;;;2.45;;
18340;SDS011;9296;48.084;16.352;2023-04-29T15:46:46;4.63;;;3.50;;
18340;SDS011;9296;48.084;16.352;2023-04-29T15:49:13;1.83;;;1.30;;
18340;SDS011;9296;48.084;16.352;2023-04-29T15:51:47;1.85;;;1.00;;
18340;SDS011;9296;48.084;16.352;2023-04-29T15:54:18;1.25;;;1.00;;
18340;SDS011;9296;48.084;16.352;2023-04-29T15:56:48;1.00;;;0.90;;
18340;SDS011;9296;48.084;16.352;2023-04-29T15:59:16;1.77;;;1.45;;
18340;SDS011;9296;48.084;16.352;2023-04-29T16:01:43;3.08;;;1.70;;
18340;SDS011;9296;48.084;16.352;2023-04-29T16:04:10;3.70;;;2.50;;
18340;SDS011;9296;48.084;16.352;2023-04-29T16:06:37;5.05;;;4.15;;
18340;SDS011;9296;48.084;16.352;2023-04-29T16:09:13;6.22;;;5.63;;
18340;SDS011;9296;48.084;16.352;2023-04-29T16:11:40;8.95;;;7.70;;
18340;SDS011;9296;48.084;16.352;2023-04-29T16:14:08;10.05;;;8.55;;
18340;SDS011;9296;48.084;16.352;2023-04-29T16:16:36;10.38;;;8.65;;
18340;SDS011;9296;48.084;16.352;2023-04-29T16:19:10;10.82;;;7.63;;
18340;SDS011;9296;48.084;16.352;2023-04-29T16:21:49;8.98;;;7.40;;
18340;SDS011;9296;48.084;16.352;2023-04-29T16:24:39;7.72;;;6.40;;
18340;SDS011;9296;48.084;16.352;2023-04-29T16:27:06;9.25;;;6.57;;
18340;SDS011;9296;48.084;16.352;2023-04-29T16:29:43;8.80;;;6.47;;
18340;SDS011;9296;48.084;16.352;2023-04-29T16:32:13;7.93;;;6.80;;
18340;SDS011;9296;48.084;16.352;2023-04-29T16:34:43;10.35;;;6.90;;
18340;SDS011;9296;48.084;16.352;2023-04-29T16:45:35;8.05;;;6.93;;
18340;SDS011;9296;48.084;16.352;2023-04-29T16:48:03;9.00;;;6.43;;
18340;SDS011;9296;48.084;16.352;2023-04-29T16:50:30;9.50;;;6.70;;
18340;SDS011;9296;48.084;16.352;2023-04-29T16:53:00;8.55;;;6.97;;
18340;SDS011;9296;48.084;16.352;2023-04-29T16:55:27;7.05;;;5.93;;
18340;SDS011;9296;48.084;16.352;2023-04-29T16:57:54;6.40;;;5.75;;
18340;SDS011;9296;48.084;16.352;2023-04-29T17:00:22;8.57;;;5.75;;
18340;SDS011;9296;48.084;16.352;2023-04-29T17:02:50;7.30;;;5.93;;
18340;SDS011;9296;48.084;16.352;2023-04-29T17:05:18;7.88;;;6.63;;
18340;SDS011;9296;48.084;16.352;2023-04-29T17:13:44;8.73;;;6.90;;
18340;SDS011;9296;48.084;16.352;2023-04-29T17:16:11;7.65;;;6.68;;
18340;SDS011;9296;48.084;16.352;2023-04-29T17:18:40;8.25;;;6.70;;
18340;SDS011;9296;48.084;16.352;2023-04-29T17:21:07;10.13;;;6.85;;
18340;SDS011;9296;48.084;16.352;2023-04-29T17:23:34;9.10;;;6.93;;
18340;SDS011;9296;48.084;16.352;2023-04-29T17:26:02;9.25;;;7.22;;
18340;SDS011;9296;48.084;16.352;2023-04-29T17:28:29;9.45;;;6.72;;
18340;SDS011;9296;48.084;16.352;2023-04-29T17:30:57;11.13;;;7.20;;
18340;SDS011;9296;48.084;16.352;2023-04-29T17:33:25;9.73;;;7.82;;
18340;SDS011;9296;48.084;16.352;2023-04-29T17:35:59;10.75;;;8.07;;